sensor_id;sensor_type;location;lat;lon;timestamp;pressure;altitude;pressure_sealevel;temperature;humidity
21779;BME280;11050;52.222;20.916;2023-07-30T00:02:20;99201.66;;;19.49;100.00
21779;BME280;11050;52.222;20.916;2023-07-30T00:04:46;99205.94;;;19.46;100.00
21779;BME280;11050;52.222;20.916;2023-07-30T00:07:13;99210.25;;;19.44;100.00
21779;BME280;11050;52.222;20.916;2023-07-30T00:09:39;99201.41;;;19.42;100.00
21779;BME280;11050;52.222;20.916;2023-07-30T00:12:07;99205.31;;;19.41;100.00
21779;BME280;11050;52.222;20.916;2023-07-30T00:14:33;99204.19;;;19.42;100.00
21779;BME280;11050;52.222;20.916;2023-07-30T00:17:00;99203.50;;;19.45;100.00
21779;BME280;11050;52.222;20.916;2023-07-30T00:19:25;99218.59;;;19.44;100.00
21779;BME280;11050;52.222;20.916;2023-07-30T00:21:51;99217.78;;;19.43;100.00
21779;BME280;11050;52.222;20.916;2023-07-30T00:24:17;99208.09;;;19.41;100.00
21779;BME280;11050;52.222;20.916;2023-07-30T00:26:43;99206.63;;;19.43;100.00
21779;BME280;11050;52.222;20.916;2023-07-30T00:29:08;99212.38;;;19.38;100.00
21779;BME280;11050;52.222;20.916;2023-07-30T00:31:34;99231.56;;;19.40;100.00
21779;BME280;11050;52.222;20.916;2023-07-30T00:34:01;99230.41;;;19.41;100.00
21779;BME280;11050;52.222;20.916;2023-07-30T00:36:27;99227.13;;;19.39;100.00
21779;BME280;11050;52.222;20.916;2023-07-30T00:38:53;99229.44;;;19.37;100.00
21779;BME280;11050;52.222;20.916;2023-07-30T00:41:18;99231.56;;;19.40;100.00
21779;BME280;11050;52.222;20.916;2023-07-30T00:43:44;99246.28;;;19.40;100.00
21779;BME280;11050;52.222;20.916;2023-07-30T00:46:11;99243.03;;;19.38;100.00
21779;BME280;11050;52.222;20.916;2023-07-30T00:48:38;99234.22;;;19.28;100.00
21779;BME280;11050;52.222;20.916;2023-07-30T00:51:05;99229.97;;;19.30;100.00
21779;BME280;11050;52.222;20.916;2023-07-30T00:53:32;99235.69;;;19.25;100.00
21779;BME280;11050;52.222;20.916;2023-07-30T00:55:58;99242.66;;;19.19;100.00
21779;BME280;11050;52.222;20.916;2023-07-30T00:58:24;99246.91;;;19.17;100.00
21779;BME280;11050;52.222;20.916;2023-07-30T01:00:53;99237.25;;;19.14;100.00
21779;BME280;11050;52.222;20.916;2023-07-30T01:03:20;99250.19;;;19.19;100.00
21779;BME280;11050;52.222;20.916;2023-07-30T01:05:45;99245.75;;;19.18;100.00
21779;BME280;11050;52.222;20.916;2023-07-30T01:08:11;99248.34;;;19.23;100.00
21779;BME280;11050;52.222;20.916;2023-07-30T01:10:40;99246.72;;;19.22;100.00
21779;BME280;11050;52.222;20.916;2023-07-30T01:13:09;99250.66;;;19.21;100.00
21779;BME280;11050;52.222;20.916;2023-07-30T01:15:37;99252.28;;;19.22;100.00
21779;BME280;11050;52.222;20.916;2023-07-30T01:18:03;99239.25;;;19.14;100.00
21779;BME280;11050;52.222;20.916;2023-07-30T01:20:32;99249.00;;;19.20;100.00
21779;BME280;11050;52.222;20.916;2023-07-30T01:22:59;99254.59;;;19.20;100.00
21779;BME280;11050;52.222;20.916;2023-07-30T01:25:31;99256.88;;;19.18;100.00
21779;BME280;11050;52.222;20.916;2023-07-30T01:28:01;99257.09;;;19.13;100.00
21779;BME280;11050;52.222;20.916;2023-07-30T01:30:41;99251.72;;;19.08;100.00
21779;BME280;11050;52.222;20.916;2023-07-30T01:33:11;99259.38;;;19.11;100.00
21779;BME280;11050;52.222;20.916;2023-07-30T01:35:37;99252.84;;;19.07;100.00
21779;BME280;11050;52.222;20.916;2023-07-30T01:38:04;99253.81;;;19.11;100.00
21779;BME280;11050;52.222;20.916;2023-07-30T01:40:34;99255.47;;;19.12;100.00
21779;BME280;11050;52.222;20.916;2023-07-30T01:43:00;99257.63;;;19.06;100.00
21779;BME280;11050;52.222;20.916;2023-07-30T01:45:25;99254.84;;;19.06;100.00
21779;BME280;11050;52.222;20.916;2023-07-30T01:47:52;99247.97;;;19.04;100.00
21779;BME280;11050;52.222;20.916;2023-07-30T01:50:17;99254.19;;;19.01;100.00
21779;BME280;11050;52.222;20.916;2023-07-30T01:52:43;99249.91;;;19.03;100.00
21779;BME280;11050;52.222;20.916;2023-07-30T01:55:09;99246.00;;;19.04;100.00
21779;BME280;11050;52.222;20.916;2023-07-30T01:57:35;99259.13;;;18.95;100.00
21779;BME280;11050;52.222;20.916;2023-07-30T02:00:00;99254.38;;;18.96;100.00
21779;BME280;11050;52.222;20.916;2023-07-30T02:02:26;99262.09;;;18.99;100.00
21779;BME280;11050;52.222;20.916;2023-07-30T02:04:52;99266.50;;;19.00;100.00
21779;BME280;11050;52.222;20.916;2023-07-30T02:07:18;99261.44;;;18.93;100.00
21779;BME280;11050;52.222;20.916;2023-07-30T02:09:43;99261.91;;;18.95;100.00
21779;BME280;11050;52.222;20.916;2023-07-30T02:12:09;99274.91;;;18.91;100.00
21779;BME280;11050;52.222;20.916;2023-07-30T02:14:35;99272.91;;;18.91;100.00
21779;BME280;11050;52.222;20.916;2023-07-30T02:17:01;99279.97;;;18.89;100.00
21779;BME280;11050;52.222;20.916;2023-07-30T02:19:26;99276.38;;;18.88;100.00
21779;BME280;11050;52.222;20.916;2023-07-30T02:21:52;99274.06;;;18.90;100.00
21779;BME280;11050;52.222;20.916;2023-07-30T02:24:18;99279.00;;;18.85;100.00
21779;BME280;11050;52.222;20.916;2023-07-30T02:26:43;99278.00;;;18.89;100.00
21779;BME280;11050;52.222;20.916;2023-07-30T02:29:09;99289.47;;;18.88;100.00
21779;BME280;11050;52.222;20.916;2023-07-30T02:31:35;99286.47;;;18.93;100.00
21779;BME280;11050;52.222;20.916;2023-07-30T02:34:01;99288.13;;;18.94;100.00
21779;BME280;11050;52.222;20.916;2023-07-30T02:36:26;99291.06;;;18.98;100.00
21779;BME280;11050;52.222;20.916;2023-07-30T02:38:52;99294.34;;;19.00;100.00
21779;BME280;11050;52.222;20.916;2023-07-30T02:41:18;99300.72;;;19.00;100.00
21779;BME280;11050;52.222;20.916;2023-07-30T02:43:43;99295.66;;;19.02;100.00
21779;BME280;11050;52.222;20.916;2023-07-30T02:46:09;99289.41;;;19.05;100.00
21779;BME280;11050;52.222;20.916;2023-07-30T02:48:35;99293.00;;;19.06;100.00
21779;BME280;11050;52.222;20.916;2023-07-30T02:51:01;99295.94;;;19.09;100.00
21779;BME280;11050;52.222;20.916;2023-07-30T02:53:26;99285.13;;;19.08;100.00
21779;BME280;11050;52.222;20.916;2023-07-30T02:55:53;99293.50;;;19.08;100.00
21779;BME280;11050;52.222;20.916;2023-07-30T02:58:18;99287.72;;;19.13;100.00
21779;BME280;11050;52.222;20.916;2023-07-30T03:00:44;99286.91;;;19.12;100.00
21779;BME280;11050;52.222;20.916;2023-07-30T03:03:10;99287.44;;;19.06;100.00
21779;BME280;11050;52.222;20.916;2023-07-30T03:05:35;99302.63;;;19.08;100.00
21779;BME280;11050;52.222;20.916;2023-07-30T03:08:01;99297.41;;;19.07;100.00
21779;BME280;11050;52.222;20.916;2023-07-30T03:10:27;99299.53;;;19.10;100.00
21779;BME280;11050;52.222;20.916;2023-07-30T03:12:53;99295.78;;;19.06;100.00
21779;BME280;11050;52.222;20.916;2023-07-30T03:15:18;99306.94;;;19.06;100.00
21779;BME280;11050;52.222;20.916;2023-07-30T03:17:44;99308.22;;;19.08;100.00
21779;BME280;11050;52.222;20.916;2023-07-30T03:20:10;99305.75;;;19.07;100.00
21779;BME280;11050;52.222;20.916;2023-07-30T03:22:36;99304.97;;;19.06;100.00
21779;BME280;11050;52.222;20.916;2023-07-30T03:25:02;99312.31;;;19.11;100.00
21779;BME280;11050;52.222;20.916;2023-07-30T03:27:28;99310.00;;;19.13;100.00
21779;BME280;11050;52.222;20.916;2023-07-30T03:29:54;99313.97;;;19.12;100.00
21779;BME280;11050;52.222;20.916;2023-07-30T03:32:19;99303.81;;;19.07;100.00
21779;BME280;11050;52.222;20.916;2023-07-30T03:34:45;99300.81;;;19.12;100.00
21779;BME280;11050;52.222;20.916;2023-07-30T03:37:11;99316.06;;;19.15;100.00
21779;BME280;11050;52.222;20.916;2023-07-30T03:39:36;99315.09;;;19.11;100.00
21779;BME280;11050;52.222;20.916;2023-07-30T03:42:02;99322.13;;;19.17;100.00
21779;BME280;11050;52.222;20.916;2023-07-30T03:44:28;99315.06;;;19.19;100.00
21779;BME280;11050;52.222;20.916;2023-07-30T03:46:54;99306.38;;;19.21;100.00
21779;BME280;11050;52.222;20.916;2023-07-30T03:49:20;99317.16;;;19.22;100.00
21779;BME280;11050;52.222;20.916;2023-07-30T03:51:45;99328.59;;;19.29;100.00
21779;BME280;11050;52.222;20.916;2023-07-30T03:54:11;99321.59;;;19.32;100.00
21779;BME280;11050;52.222;20.916;2023-07-30T03:56:37;99315.50;;;19.30;100.00
21779;BME280;11050;52.222;20.916;2023-07-30T03:59:02;99312.06;;;19.33;100.00
21779;BME280;11050;52.222;20.916;2023-07-30T04:01:28;99316.00;;;19.32;100.00
21779;BME280;11050;52.222;20.916;2023-07-30T04:03:56;99315.03;;;19.36;100.00
21779;BME280;11050;52.222;20.916;2023-07-30T04:06:21;99323.19;;;19.41;100.00
21779;BME280;11050;52.222;20.916;2023-07-30T04:08:47;99328.56;;;19.46;100.00
21779;BME280;11050;52.222;20.916;2023-07-30T04:11:13;99338.88;;;19.46;100.00
21779;BME280;11050;52.222;20.916;2023-07-30T04:13:39;99332.50;;;19.45;100.00
21779;BME280;11050;52.222;20.916;2023-07-30T04:16:06;99346.25;;;19.50;100.00
21779;BME280;11050;52.222;20.916;2023-07-30T04:18:32;99343.59;;;19.54;100.00
21779;BME280;11050;52.222;20.916;2023-07-30T04:20:57;99343.94;;;19.52;100.00
21779;BME280;11050;52.222;20.916;2023-07-30T04:23:23;99353.47;;;19.51;100.00
21779;BME280;11050;52.222;20.916;2023-07-30T04:25:50;99358.88;;;19.48;100.00
21779;BME280;11050;52.222;20.916;2023-07-30T04:28:16;99360.66;;;19.52;100.00
21779;BME280;11050;52.222;20.916;2023-07-30T04:30:42;99367.34;;;19.60;100.00
21779;BME280;11050;52.222;20.916;2023-07-30T04:33:08;99384.56;;;19.62;100.00
21779;BME280;11050;52.222;20.916;2023-07-30T04:35:34;99381.75;;;19.62;100.00
21779;BME280;11050;52.222;20.916;2023-07-30T04:37:59;99374.72;;;19.56;100.00
21779;BME280;11050;52.222;20.916;2023-07-30T04:40:25;99375.38;;;19.61;100.00
21779;BME280;11050;52.222;20.916;2023-07-30T04:42:51;99376.66;;;19.64;100.00
21779;BME280;11050;52.222;20.916;2023-07-30T04:45:17;99389.94;;;19.67;100.00
21779;BME280;11050;52.222;20.916;2023-07-30T04:47:42;99387.63;;;19.69;100.00
21779;BME280;11050;52.222;20.916;2023-07-30T04:50:08;99394.31;;;19.76;100.00
21779;BME280;11050;52.222;20.916;2023-07-30T04:52:34;99389.56;;;19.77;100.00
21779;BME280;11050;52.222;20.916;2023-07-30T04:55:00;99401.13;;;19.88;100.00
21779;BME280;11050;52.222;20.916;2023-07-30T04:57:26;99398.47;;;19.91;100.00
21779;BME280;11050;52.222;20.916;2023-07-30T04:59:52;99400.81;;;19.89;100.00
21779;BME280;11050;52.222;20.916;2023-07-30T05:02:18;99399.25;;;20.00;100.00
21779;BME280;11050;52.222;20.916;2023-07-30T05:04:43;99408.25;;;20.06;100.00
21779;BME280;11050;52.222;20.916;2023-07-30T05:07:09;99417.22;;;20.11;100.00
21779;BME280;11050;52.222;20.916;2023-07-30T05:09:36;99409.47;;;20.17;100.00
21779;BME280;11050;52.222;20.916;2023-07-30T05:12:02;99407.13;;;20.27;100.00
21779;BME280;11050;52.222;20.916;2023-07-30T05:14:28;99410.22;;;20.34;100.00
21779;BME280;11050;52.222;20.916;2023-07-30T05:16:53;99429.81;;;20.46;100.00
21779;BME280;11050;52.222;20.916;2023-07-30T05:19:19;99431.16;;;20.40;100.00
21779;BME280;11050;52.222;20.916;2023-07-30T05:21:45;99428.09;;;20.33;100.00
21779;BME280;11050;52.222;20.916;2023-07-30T05:24:11;99432.72;;;20.29;100.00
21779;BME280;11050;52.222;20.916;2023-07-30T05:26:37;99437.03;;;20.27;100.00
21779;BME280;11050;52.222;20.916;2023-07-30T05:29:03;99442.25;;;20.28;100.00
21779;BME280;11050;52.222;20.916;2023-07-30T05:31:28;99441.22;;;20.33;100.00
21779;BME280;11050;52.222;20.916;2023-07-30T05:33:55;99444.50;;;20.35;100.00
21779;BME280;11050;52.222;20.916;2023-07-30T05:36:20;99435.13;;;20.39;100.00
21779;BME280;11050;52.222;20.916;2023-07-30T05:38:46;99448.88;;;20.44;100.00
21779;BME280;11050;52.222;20.916;2023-07-30T05:41:12;99454.88;;;20.34;100.00
21779;BME280;11050;52.222;20.916;2023-07-30T05:43:38;99453.84;;;20.39;100.00
21779;BME280;11050;52.222;20.916;2023-07-30T05:46:03;99466.44;;;20.45;100.00
21779;BME280;11050;52.222;20.916;2023-07-30T05:48:29;99464.41;;;20.54;100.00
21779;BME280;11050;52.222;20.916;2023-07-30T05:50:55;99454.44;;;20.65;100.00
21779;BME280;11050;52.222;20.916;2023-07-30T05:53:21;99458.28;;;20.81;100.00
21779;BME280;11050;52.222;20.916;2023-07-30T05:55:47;99459.88;;;20.82;100.00
21779;BME280;11050;52.222;20.916;2023-07-30T05:58:13;99469.69;;;20.88;100.00
21779;BME280;11050;52.222;20.916;2023-07-30T06:00:39;99478.31;;;21.04;100.00
21779;BME280;11050;52.222;20.916;2023-07-30T06:03:05;99475.41;;;20.92;100.00
21779;BME280;11050;52.222;20.916;2023-07-30T06:05:32;99478.44;;;20.87;100.00
21779;BME280;11050;52.222;20.916;2023-07-30T06:07:57;99481.09;;;20.83;100.00
21779;BME280;11050;52.222;20.916;2023-07-30T06:10:25;99480.03;;;20.88;100.00
21779;BME280;11050;52.222;20.916;2023-07-30T06:12:50;99475.41;;;20.92;100.00
21779;BME280;11050;52.222;20.916;2023-07-30T06:15:16;99472.59;;;21.00;100.00
21779;BME280;11050;52.222;20.916;2023-07-30T06:17:42;99476.66;;;21.03;100.00
21779;BME280;11050;52.222;20.916;2023-07-30T06:20:08;99493.00;;;21.13;100.00
21779;BME280;11050;52.222;20.916;2023-07-30T06:22:34;99503.72;;;21.11;100.00
21779;BME280;11050;52.222;20.916;2023-07-30T06:25:00;99487.97;;;21.06;100.00
21779;BME280;11050;52.222;20.916;2023-07-30T06:27:26;99486.69;;;21.04;100.00
21779;BME280;11050;52.222;20.916;2023-07-30T06:29:51;99499.28;;;21.10;100.00
21779;BME280;11050;52.222;20.916;2023-07-30T06:32:17;99488.50;;;21.20;100.00
21779;BME280;11050;52.222;20.916;2023-07-30T06:34:43;99490.88;;;21.42;100.00
21779;BME280;11050;52.222;20.916;2023-07-30T06:37:09;99503.50;;;21.48;100.00
21779;BME280;11050;52.222;20.916;2023-07-30T06:39:34;99503.59;;;21.40;100.00
21779;BME280;11050;52.222;20.916;2023-07-30T06:42:00;99487.66;;;21.20;100.00
21779;BME280;11050;52.222;20.916;2023-07-30T06:44:26;99492.31;;;21.16;100.00
21779;BME280;11050;52.222;20.916;2023-07-30T06:46:51;99488.63;;;21.24;100.00
21779;BME280;11050;52.222;20.916;2023-07-30T06:49:17;99490.78;;;21.39;100.00
21779;BME280;11050;52.222;20.916;2023-07-30T06:51:43;99505.91;;;21.38;100.00
21779;BME280;11050;52.222;20.916;2023-07-30T06:54:08;99502.19;;;21.46;100.00
21779;BME280;11050;52.222;20.916;2023-07-30T06:56:34;99498.31;;;21.71;100.00
21779;BME280;11050;52.222;20.916;2023-07-30T06:59:01;99507.91;;;21.82;100.00
21779;BME280;11050;52.222;20.916;2023-07-30T07:01:27;99501.69;;;21.77;100.00
21779;BME280;11050;52.222;20.916;2023-07-30T07:03:53;99506.88;;;21.87;100.00
21779;BME280;11050;52.222;20.916;2023-07-30T07:06:19;99502.34;;;21.94;98.80
21779;BME280;11050;52.222;20.916;2023-07-30T07:08:44;99516.31;;;22.06;96.72
21779;BME280;11050;52.222;20.916;2023-07-30T07:11:11;99507.22;;;22.21;93.91
21779;BME280;11050;52.222;20.916;2023-07-30T07:13:37;99508.38;;;22.44;93.58
21779;BME280;11050;52.222;20.916;2023-07-30T07:16:03;99499.75;;;22.62;92.11
21779;BME280;11050;52.222;20.916;2023-07-30T07:18:29;99523.41;;;22.76;92.04
21779;BME280;11050;52.222;20.916;2023-07-30T07:20:55;99518.63;;;22.77;93.36
21779;BME280;11050;52.222;20.916;2023-07-30T07:23:20;99520.50;;;22.85;93.55
21779;BME280;11050;52.222;20.916;2023-07-30T07:25:46;99511.25;;;22.84;92.15
21779;BME280;11050;52.222;20.916;2023-07-30T07:28:12;99519.78;;;22.88;91.24
21779;BME280;11050;52.222;20.916;2023-07-30T07:30:37;99514.97;;;23.00;90.52
21779;BME280;11050;52.222;20.916;2023-07-30T07:33:03;99532.13;;;22.99;89.67
21779;BME280;11050;52.222;20.916;2023-07-30T07:35:31;99526.56;;;22.75;89.46
21779;BME280;11050;52.222;20.916;2023-07-30T07:37:57;99513.50;;;22.67;91.82
21779;BME280;11050;52.222;20.916;2023-07-30T07:40:23;99520.25;;;22.90;91.02
21779;BME280;11050;52.222;20.916;2023-07-30T07:42:48;99529.09;;;23.04;90.37
21779;BME280;11050;52.222;20.916;2023-07-30T07:45:14;99529.19;;;23.07;87.81
21779;BME280;11050;52.222;20.916;2023-07-30T07:47:40;99503.56;;;23.21;87.10
21779;BME280;11050;52.222;20.916;2023-07-30T07:50:06;99521.47;;;23.44;85.28
21779;BME280;11050;52.222;20.916;2023-07-30T07:52:32;99512.38;;;23.07;86.47
21779;BME280;11050;52.222;20.916;2023-07-30T07:54:58;99510.03;;;23.09;86.78
21779;BME280;11050;52.222;20.916;2023-07-30T07:57:23;99511.28;;;23.12;86.15
21779;BME280;11050;52.222;20.916;2023-07-30T07:59:49;99521.19;;;23.21;85.19
21779;BME280;11050;52.222;20.916;2023-07-30T08:02:15;99527.41;;;23.15;83.72
21779;BME280;11050;52.222;20.916;2023-07-30T08:04:41;99517.78;;;23.28;85.34
21779;BME280;11050;52.222;20.916;2023-07-30T08:07:06;99537.63;;;23.35;83.61
21779;BME280;11050;52.222;20.916;2023-07-30T08:09:32;99531.94;;;23.19;82.96
21779;BME280;11050;52.222;20.916;2023-07-30T08:11:59;99528.25;;;23.03;82.91
21779;BME280;11050;52.222;20.916;2023-07-30T08:14:26;99534.63;;;23.16;83.10
21779;BME280;11050;52.222;20.916;2023-07-30T08:16:54;99532.56;;;23.40;85.22
21779;BME280;11050;52.222;20.916;2023-07-30T08:19:20;99536.91;;;23.66;82.73
21779;BME280;11050;52.222;20.916;2023-07-30T08:21:45;99536.00;;;23.93;79.58
21779;BME280;11050;52.222;20.916;2023-07-30T08:24:11;99546.00;;;23.90;77.61
21779;BME280;11050;52.222;20.916;2023-07-30T08:26:37;99538.22;;;23.99;78.65
21779;BME280;11050;52.222;20.916;2023-07-30T08:29:03;99529.19;;;24.21;78.11
21779;BME280;11050;52.222;20.916;2023-07-30T08:31:28;99542.41;;;24.21;77.72
21779;BME280;11050;52.222;20.916;2023-07-30T08:33:54;99530.44;;;24.24;77.88
21779;BME280;11050;52.222;20.916;2023-07-30T08:36:20;99536.56;;;24.61;76.04
21779;BME280;11050;52.222;20.916;2023-07-30T08:38:45;99550.50;;;24.88;73.39
21779;BME280;11050;52.222;20.916;2023-07-30T08:41:11;99549.97;;;24.83;73.01
21779;BME280;11050;52.222;20.916;2023-07-30T08:43:37;99544.78;;;24.85;74.43
21779;BME280;11050;52.222;20.916;2023-07-30T08:46:03;99539.19;;;24.85;74.00
21779;BME280;11050;52.222;20.916;2023-07-30T08:48:29;99554.69;;;24.79;72.67
21779;BME280;11050;52.222;20.916;2023-07-30T08:50:57;99548.44;;;24.70;74.70
21779;BME280;11050;52.222;20.916;2023-07-30T08:53:26;99544.56;;;24.93;72.21
21779;BME280;11050;52.222;20.916;2023-07-30T08:55:55;99540.59;;;25.32;71.59
21779;BME280;11050;52.222;20.916;2023-07-30T08:58:23;99549.91;;;25.52;68.86
21779;BME280;11050;52.222;20.916;2023-07-30T09:00:55;99549.44;;;25.50;67.86
21779;BME280;11050;52.222;20.916;2023-07-30T09:03:24;99536.53;;;25.68;67.85
21779;BME280;11050;52.222;20.916;2023-07-30T09:05:51;99557.44;;;25.67;68.07
21779;BME280;11050;52.222;20.916;2023-07-30T09:08:18;99548.19;;;25.48;68.57
21779;BME280;11050;52.222;20.916;2023-07-30T09:10:44;99543.25;;;25.41;69.55
21779;BME280;11050;52.222;20.916;2023-07-30T09:13:09;99553.81;;;25.48;68.52
21779;BME280;11050;52.222;20.916;2023-07-30T09:15:37;99551.13;;;25.35;67.62
21779;BME280;11050;52.222;20.916;2023-07-30T09:18:05;99566.41;;;25.54;66.86
21779;BME280;11050;52.222;20.916;2023-07-30T09:20:41;99562.97;;;25.83;66.45
21779;BME280;11050;52.222;20.916;2023-07-30T09:23:09;99559.84;;;25.88;67.22
21779;BME280;11050;52.222;20.916;2023-07-30T09:25:36;99558.81;;;25.77;69.20
21779;BME280;11050;52.222;20.916;2023-07-30T09:28:03;99556.78;;;25.74;68.34
21779;BME280;11050;52.222;20.916;2023-07-30T09:30:29;99560.41;;;25.97;67.21
21779;BME280;11050;52.222;20.916;2023-07-30T09:32:57;99562.06;;;25.98;66.60
21779;BME280;11050;52.222;20.916;2023-07-30T09:35:25;99564.88;;;25.98;65.89
21779;BME280;11050;52.222;20.916;2023-07-30T09:37:59;99555.59;;;25.97;65.79
21779;BME280;11050;52.222;20.916;2023-07-30T09:40:36;99560.31;;;26.35;64.63
21779;BME280;11050;52.222;20.916;2023-07-30T09:43:05;99556.41;;;26.66;63.10
21779;BME280;11050;52.222;20.916;2023-07-30T09:45:35;99560.84;;;26.93;61.80
21779;BME280;11050;52.222;20.916;2023-07-30T09:48:04;99559.00;;;27.04;59.90
21779;BME280;11050;52.222;20.916;2023-07-30T09:50:37;99572.13;;;26.93;61.57
21779;BME280;11050;52.222;20.916;2023-07-30T09:53:04;99569.72;;;26.69;59.78
21779;BME280;11050;52.222;20.916;2023-07-30T09:55:30;99576.28;;;26.27;60.74
21779;BME280;11050;52.222;20.916;2023-07-30T09:57:56;99560.50;;;26.23;62.73
21779;BME280;11050;52.222;20.916;2023-07-30T10:00:22;99561.56;;;26.60;63.89
21779;BME280;11050;52.222;20.916;2023-07-30T10:02:49;99562.53;;;26.97;61.77
21779;BME280;11050;52.222;20.916;2023-07-30T10:05:22;99550.03;;;27.25;58.98
21779;BME280;11050;52.222;20.916;2023-07-30T10:08:04;99567.00;;;27.58;57.99
21779;BME280;11050;52.222;20.916;2023-07-30T10:10:31;99559.41;;;27.62;57.10
21779;BME280;11050;52.222;20.916;2023-07-30T10:13:03;99558.66;;;27.68;57.22
21779;BME280;11050;52.222;20.916;2023-07-30T10:15:29;99556.41;;;28.21;58.44
21779;BME280;11050;52.222;20.916;2023-07-30T10:17:58;99555.53;;;28.54;53.20
21779;BME280;11050;52.222;20.916;2023-07-30T10:20:27;99551.88;;;28.53;52.03
21779;BME280;11050;52.222;20.916;2023-07-30T10:22:59;99559.66;;;28.23;52.47
21779;BME280;11050;52.222;20.916;2023-07-30T10:25:46;99554.56;;;27.95;52.78
21779;BME280;11050;52.222;20.916;2023-07-30T10:28:39;99547.69;;;27.60;53.74
21779;BME280;11050;52.222;20.916;2023-07-30T10:31:09;99552.13;;;27.31;55.77
21779;BME280;11050;52.222;20.916;2023-07-30T10:33:51;99557.75;;;27.31;56.76
21779;BME280;11050;52.222;20.916;2023-07-30T10:36:42;99560.16;;;27.59;56.69
21779;BME280;11050;52.222;20.916;2023-07-30T10:41:38;99548.84;;;27.92;54.93
21779;BME280;11050;52.222;20.916;2023-07-30T10:44:04;99541.19;;;27.92;53.11
21779;BME280;11050;52.222;20.916;2023-07-30T10:46:30;99544.13;;;28.03;51.70
21779;BME280;11050;52.222;20.916;2023-07-30T10:48:56;99545.19;;;28.28;50.31
21779;BME280;11050;52.222;20.916;2023-07-30T10:51:21;99534.47;;;28.51;50.65
21779;BME280;11050;52.222;20.916;2023-07-30T10:53:50;99543.63;;;28.85;48.38
21779;BME280;11050;52.222;20.916;2023-07-30T10:56:21;99535.22;;;28.99;47.71
21779;BME280;11050;52.222;20.916;2023-07-30T10:58:54;99551.81;;;29.04;46.89
21779;BME280;11050;52.222;20.916;2023-07-30T11:01:24;99544.19;;;29.12;47.71
21779;BME280;11050;52.222;20.916;2023-07-30T11:03:50;99528.13;;;29.26;48.26
21779;BME280;11050;52.222;20.916;2023-07-30T11:06:25;99523.41;;;29.58;46.28
21779;BME280;11050;52.222;20.916;2023-07-30T11:08:52;99517.38;;;29.74;45.45
21779;BME280;11050;52.222;20.916;2023-07-30T11:11:18;99519.88;;;30.07;46.40
21779;BME280;11050;52.222;20.916;2023-07-30T11:13:46;99526.41;;;30.53;44.88
21779;BME280;11050;52.222;20.916;2023-07-30T11:16:13;99527.59;;;31.02;43.27
21779;BME280;11050;52.222;20.916;2023-07-30T11:18:41;99523.00;;;31.32;40.06
21779;BME280;11050;52.222;20.916;2023-07-30T11:21:13;99527.81;;;31.49;38.66
21779;BME280;11050;52.222;20.916;2023-07-30T11:23:41;99518.94;;;31.33;39.53
21779;BME280;11050;52.222;20.916;2023-07-30T11:26:16;99518.22;;;31.08;40.34
21779;BME280;11050;52.222;20.916;2023-07-30T11:28:43;99523.53;;;30.85;41.20
21779;BME280;11050;52.222;20.916;2023-07-30T11:31:17;99512.22;;;30.67;42.07
21779;BME280;11050;52.222;20.916;2023-07-30T11:33:47;99508.16;;;30.79;41.87
21779;BME280;11050;52.222;20.916;2023-07-30T11:36:22;99518.72;;;30.50;41.98
21779;BME280;11050;52.222;20.916;2023-07-30T11:38:51;99521.06;;;31.05;42.46
21779;BME280;11050;52.222;20.916;2023-07-30T11:41:19;99510.50;;;31.12;41.37
21779;BME280;11050;52.222;20.916;2023-07-30T11:43:47;99507.31;;;31.00;41.77
21779;BME280;11050;52.222;20.916;2023-07-30T11:46:15;99510.56;;;30.70;40.33
21779;BME280;11050;52.222;20.916;2023-07-30T11:48:45;99514.25;;;30.28;40.37
21779;BME280;11050;52.222;20.916;2023-07-30T11:51:26;99527.53;;;29.82;41.34
21779;BME280;11050;52.222;20.916;2023-07-30T11:54:00;99516.06;;;29.43;43.03
21779;BME280;11050;52.222;20.916;2023-07-30T11:56:32;99520.78;;;29.15;44.94
21779;BME280;11050;52.222;20.916;2023-07-30T11:59:05;99520.59;;;28.86;45.78
21779;BME280;11050;52.222;20.916;2023-07-30T12:01:33;99522.47;;;28.65;47.39
21779;BME280;11050;52.222;20.916;2023-07-30T12:04:06;99522.28;;;28.44;48.59
21779;BME280;11050;52.222;20.916;2023-07-30T12:09:19;99518.16;;;27.90;50.86
21779;BME280;11050;52.222;20.916;2023-07-30T12:11:55;99514.91;;;27.88;51.35
21779;BME280;11050;52.222;20.916;2023-07-30T12:17:14;99528.91;;;28.15;51.17
21779;BME280;11050;52.222;20.916;2023-07-30T12:19:41;99523.66;;;28.60;49.97
21779;BME280;11050;52.222;20.916;2023-07-30T12:22:07;99522.59;;;29.68;47.47
21779;BME280;11050;52.222;20.916;2023-07-30T12:24:33;99522.34;;;30.86;43.91
21779;BME280;11050;52.222;20.916;2023-07-30T12:26:59;99528.25;;;31.48;41.31
21779;BME280;11050;52.222;20.916;2023-07-30T12:29:25;99515.13;;;32.33;39.79
21779;BME280;11050;52.222;20.916;2023-07-30T12:31:51;99525.03;;;33.07;37.79
21779;BME280;11050;52.222;20.916;2023-07-30T12:34:19;99523.03;;;33.71;37.47
21779;BME280;11050;52.222;20.916;2023-07-30T12:36:45;99517.19;;;34.35;34.49
21779;BME280;11050;52.222;20.916;2023-07-30T12:39:11;99513.97;;;34.33;34.31
21779;BME280;11050;52.222;20.916;2023-07-30T12:41:37;99516.00;;;34.32;34.74
21779;BME280;11050;52.222;20.916;2023-07-30T12:44:03;99519.13;;;34.41;34.41
21779;BME280;11050;52.222;20.916;2023-07-30T12:46:31;99516.22;;;34.68;33.32
21779;BME280;11050;52.222;20.916;2023-07-30T12:48:59;99509.38;;;35.08;32.64
21779;BME280;11050;52.222;20.916;2023-07-30T12:51:32;99507.25;;;35.32;32.16
21779;BME280;11050;52.222;20.916;2023-07-30T12:53:58;99512.91;;;35.55;32.38